sensor_id;sensor_type;location;lat;lon;timestamp;P1;durP1;ratioP1;P2;durP2;ratioP2
67816;SDS011;54614;47.576;7.524;2023-01-15T00:01:27;2.67;;;0.77;;
67816;SDS011;54614;47.576;7.524;2023-01-15T00:03:56;3.45;;;0.70;;
67816;SDS011;54614;47.576;7.524;2023-01-15T00:06:24;0.70;;;0.70;;
67816;SDS011;54614;47.576;7.524;2023-01-15T00:08:52;0.95;;;0.70;;
67816;SDS011;54614;47.576;7.524;2023-01-15T00:11:19;0.70;;;0.70;;
67816;SDS011;54614;47.576;7.524;2023-01-15T00:13:45;0.80;;;0.80;;
67816;SDS011;54614;47.576;7.524;2023-01-15T00:16:16;0.60;;;0.60;;
67816;SDS011;54614;47.576;7.524;2023-01-15T00:18:49;0.80;;;0.80;;
67816;SDS011;54614;47.576;7.524;2023-01-15T00:21:17;2.22;;;0.80;;
67816;SDS011;54614;47.576;7.524;2023-01-15T00:23:44;0.65;;;0.65;;
67816;SDS011;54614;47.576;7.524;2023-01-15T00:26:30;0.70;;;0.70;;
67816;SDS011;54614;47.576;7.524;2023-01-15T00:29:16;0.80;;;0.80;;
67816;SDS011;54614;47.576;7.524;2023-01-15T00:31:42;0.70;;;0.70;;
67816;SDS011;54614;47.576;7.524;2023-01-15T00:34:17;0.70;;;0.70;;
67816;SDS011;54614;47.576;7.524;2023-01-15T00:36:43;0.70;;;0.70;;
67816;SDS011;54614;47.576;7.524;2023-01-15T00:39:09;1.02;;;0.70;;
67816;SDS011;54614;47.576;7.524;2023-01-15T00:41:35;0.60;;;0.60;;
67816;SDS011;54614;47.576;7.524;2023-01-15T00:44:00;0.70;;;0.70;;
67816;SDS011;54614;47.576;7.524;2023-01-15T00:46:26;1.27;;;0.77;;
67816;SDS011;54614;47.576;7.524;2023-01-15T00:48:52;2.25;;;0.70;;
67816;SDS011;54614;47.576;7.524;2023-01-15T00:51:18;1.67;;;0.70;;
67816;SDS011;54614;47.576;7.524;2023-01-15T00:53:44;1.88;;;0.70;;
67816;SDS011;54614;47.576;7.524;2023-01-15T00:56:09;0.70;;;0.70;;
67816;SDS011;54614;47.576;7.524;2023-01-15T00:58:35;0.70;;;0.70;;
67816;SDS011;54614;47.576;7.524;2023-01-15T01:01:01;1.25;;;0.60;;
67816;SDS011;54614;47.576;7.524;2023-01-15T01:03:27;0.95;;;0.70;;
67816;SDS011;54614;47.576;7.524;2023-01-15T01:05:58;0.57;;;0.57;;
67816;SDS011;54614;47.576;7.524;2023-01-15T01:08:26;1.83;;;0.70;;
67816;SDS011;54614;47.576;7.524;2023-01-15T01:11:03;1.40;;;0.70;;
67816;SDS011;54614;47.576;7.524;2023-01-15T01:13:35;0.70;;;0.68;;
67816;SDS011;54614;47.576;7.524;2023-01-15T01:16:03;0.68;;;0.60;;
67816;SDS011;54614;47.576;7.524;2023-01-15T01:19:14;1.08;;;0.70;;
67816;SDS011;54614;47.576;7.524;2023-01-15T01:21:46;0.68;;;0.68;;
67816;SDS011;54614;47.576;7.524;2023-01-15T01:24:14;1.27;;;0.50;;
67816;SDS011;54614;47.576;7.524;2023-01-15T01:26:43;1.42;;;0.52;;
67816;SDS011;54614;47.576;7.524;2023-01-15T01:29:13;1.10;;;0.60;;
67816;SDS011;54614;47.576;7.524;2023-01-15T01:31:42;0.93;;;0.65;;
67816;SDS011;54614;47.576;7.524;2023-01-15T01:34:09;2.05;;;0.60;;
67816;SDS011;54614;47.576;7.524;2023-01-15T01:36:37;0.93;;;0.60;;
67816;SDS011;54614;47.576;7.524;2023-01-15T01:39:07;1.92;;;0.80;;
67816;SDS011;54614;47.576;7.524;2023-01-15T01:41:39;0.70;;;0.70;;
67816;SDS011;54614;47.576;7.524;2023-01-15T01:44:06;0.55;;;0.55;;
67816;SDS011;54614;47.576;7.524;2023-01-15T01:46:57;1.10;;;0.60;;
67816;SDS011;54614;47.576;7.524;2023-01-15T01:49:25;0.50;;;0.50;;
67816;SDS011;54614;47.576;7.524;2023-01-15T01:51:54;0.60;;;0.60;;
67816;SDS011;54614;47.576;7.524;2023-01-15T01:54:27;0.60;;;0.60;;
67816;SDS011;54614;47.576;7.524;2023-01-15T01:56:57;0.70;;;0.68;;
67816;SDS011;54614;47.576;7.524;2023-01-15T01:59:23;0.50;;;0.50;;
67816;SDS011;54614;47.576;7.524;2023-01-15T02:01:51;0.50;;;0.50;;
67816;SDS011;54614;47.576;7.524;2023-01-15T02:04:18;0.63;;;0.63;;
67816;SDS011;54614;47.576;7.524;2023-01-15T02:06:47;0.50;;;0.50;;
67816;SDS011;54614;47.576;7.524;2023-01-15T02:09:13;0.60;;;0.60;;
67816;SDS011;54614;47.576;7.524;2023-01-15T02:11:39;1.25;;;0.60;;
67816;SDS011;54614;47.576;7.524;2023-01-15T02:14:13;2.55;;;0.70;;
67816;SDS011;54614;47.576;7.524;2023-01-15T02:17:28;0.50;;;0.50;;
67816;SDS011;54614;47.576;7.524;2023-01-15T02:28:48;0.43;;;0.43;;
67816;SDS011;54614;47.576;7.524;2023-01-15T02:34:09;1.48;;;0.60;;
67816;SDS011;54614;47.576;7.524;2023-01-15T02:36:45;0.60;;;0.60;;
67816;SDS011;54614;47.576;7.524;2023-01-15T02:39:20;1.95;;;0.60;;
67816;SDS011;54614;47.576;7.524;2023-01-15T02:41:50;2.08;;;0.60;;
67816;SDS011;54614;47.576;7.524;2023-01-15T02:44:23;0.60;;;0.60;;
67816;SDS011;54614;47.576;7.524;2023-01-15T02:46:53;0.65;;;0.65;;
67816;SDS011;54614;47.576;7.524;2023-01-15T02:49:21;1.80;;;0.57;;
67816;SDS011;54614;47.576;7.524;2023-01-15T02:51:50;0.52;;;0.52;;
67816;SDS011;54614;47.576;7.524;2023-01-15T02:54:23;0.60;;;0.60;;
67816;SDS011;54614;47.576;7.524;2023-01-15T02:56:59;0.98;;;0.60;;
67816;SDS011;54614;47.576;7.524;2023-01-15T02:59:38;1.13;;;0.65;;
67816;SDS011;54614;47.576;7.524;2023-01-15T03:02:09;1.10;;;0.52;;
67816;SDS011;54614;47.576;7.524;2023-01-15T03:04:48;1.45;;;0.73;;
67816;SDS011;54614;47.576;7.524;2023-01-15T03:07:45;1.70;;;0.50;;
67816;SDS011;54614;47.576;7.524;2023-01-15T03:10:17;0.65;;;0.65;;
67816;SDS011;54614;47.576;7.524;2023-01-15T03:12:56;0.55;;;0.55;;
67816;SDS011;54614;47.576;7.524;2023-01-15T03:15:34;0.52;;;0.52;;
67816;SDS011;54614;47.576;7.524;2023-01-15T03:18:49;0.50;;;0.50;;
67816;SDS011;54614;47.576;7.524;2023-01-15T03:27:16;0.55;;;0.55;;
67816;SDS011;54614;47.576;7.524;2023-01-15T03:29:47;1.38;;;0.57;;
67816;SDS011;54614;47.576;7.524;2023-01-15T03:32:18;0.50;;;0.50;;
67816;SDS011;54614;47.576;7.524;2023-01-15T03:34:47;0.50;;;0.50;;
67816;SDS011;54614;47.576;7.524;2023-01-15T03:37:17;0.43;;;0.43;;
67816;SDS011;54614;47.576;7.524;2023-01-15T03:39:45;0.60;;;0.60;;
67816;SDS011;54614;47.576;7.524;2023-01-15T03:47:48;0.50;;;0.50;;
67816;SDS011;54614;47.576;7.524;2023-01-15T03:50:47;0.45;;;0.45;;
67816;SDS011;54614;47.576;7.524;2023-01-15T03:53:22;1.42;;;0.50;;
67816;SDS011;54614;47.576;7.524;2023-01-15T03:56:17;0.43;;;0.43;;
67816;SDS011;54614;47.576;7.524;2023-01-15T03:59:02;0.40;;;0.40;;
67816;SDS011;54614;47.576;7.524;2023-01-15T04:01:31;1.02;;;0.60;;
67816;SDS011;54614;47.576;7.524;2023-01-15T04:04:02;0.63;;;0.63;;
67816;SDS011;54614;47.576;7.524;2023-01-15T04:06:31;0.40;;;0.40;;
67816;SDS011;54614;47.576;7.524;2023-01-15T04:09:02;1.30;;;0.52;;
67816;SDS011;54614;47.576;7.524;2023-01-15T04:11:34;0.60;;;0.60;;
67816;SDS011;54614;47.576;7.524;2023-01-15T04:14:00;0.50;;;0.50;;
67816;SDS011;54614;47.576;7.524;2023-01-15T04:16:27;0.60;;;0.60;;
67816;SDS011;54614;47.576;7.524;2023-01-15T04:18:57;0.50;;;0.50;;
67816;SDS011;54614;47.576;7.524;2023-01-15T04:21:23;0.47;;;0.47;;
67816;SDS011;54614;47.576;7.524;2023-01-15T04:23:49;1.00;;;0.57;;
67816;SDS011;54614;47.576;7.524;2023-01-15T04:26:15;0.60;;;0.60;;
67816;SDS011;54614;47.576;7.524;2023-01-15T04:28:41;0.50;;;0.50;;
67816;SDS011;54614;47.576;7.524;2023-01-15T04:31:07;0.55;;;0.55;;
67816;SDS011;54614;47.576;7.524;2023-01-15T04:33:33;1.45;;;0.60;;
67816;SDS011;54614;47.576;7.524;2023-01-15T04:35:59;0.52;;;0.52;;
67816;SDS011;54614;47.576;7.524;2023-01-15T04:38:27;0.50;;;0.50;;
67816;SDS011;54614;47.576;7.524;2023-01-15T04:40:53;0.50;;;0.50;;
67816;SDS011;54614;47.576;7.524;2023-01-15T04:43:38;0.60;;;0.60;;
67816;SDS011;54614;47.576;7.524;2023-01-15T04:46:23;0.50;;;0.50;;
67816;SDS011;54614;47.576;7.524;2023-01-15T04:48:50;0.73;;;0.50;;
67816;SDS011;54614;47.576;7.524;2023-01-15T04:51:16;0.57;;;0.57;;
67816;SDS011;54614;47.576;7.524;2023-01-15T04:53:42;0.50;;;0.43;;
67816;SDS011;54614;47.576;7.524;2023-01-15T04:56:08;2.08;;;0.43;;
67816;SDS011;54614;47.576;7.524;2023-01-15T04:58:34;0.52;;;0.52;;
67816;SDS011;54614;47.576;7.524;2023-01-15T05:01:00;0.40;;;0.40;;
67816;SDS011;54614;47.576;7.524;2023-01-15T05:03:27;0.50;;;0.50;;
67816;SDS011;54614;47.576;7.524;2023-01-15T05:05:59;1.75;;;0.57;;
67816;SDS011;54614;47.576;7.524;2023-01-15T05:08:26;0.47;;;0.47;;
67816;SDS011;54614;47.576;7.524;2023-01-15T05:10:53;1.13;;;0.35;;
67816;SDS011;54614;47.576;7.524;2023-01-15T05:13:18;1.08;;;0.50;;
67816;SDS011;54614;47.576;7.524;2023-01-15T05:15:44;0.40;;;0.40;;
67816;SDS011;54614;47.576;7.524;2023-01-15T05:18:12;0.50;;;0.50;;
67816;SDS011;54614;47.576;7.524;2023-01-15T05:20:39;0.40;;;0.40;;
67816;SDS011;54614;47.576;7.524;2023-01-15T05:23:06;0.47;;;0.47;;
67816;SDS011;54614;47.576;7.524;2023-01-15T05:25:34;0.40;;;0.40;;
67816;SDS011;54614;47.576;7.524;2023-01-15T05:28:01;0.45;;;0.45;;
67816;SDS011;54614;47.576;7.524;2023-01-15T05:30:27;0.50;;;0.50;;
67816;SDS011;54614;47.576;7.524;2023-01-15T05:32:53;0.40;;;0.40;;
67816;SDS011;54614;47.576;7.524;2023-01-15T05:35:19;0.63;;;0.50;;
67816;SDS011;54614;47.576;7.524;2023-01-15T05:37:44;0.50;;;0.50;;
67816;SDS011;54614;47.576;7.524;2023-01-15T05:40:10;0.63;;;0.63;;
67816;SDS011;54614;47.576;7.524;2023-01-15T05:42:36;3.23;;;0.53;;
67816;SDS011;54614;47.576;7.524;2023-01-15T05:45:03;0.75;;;0.60;;
67816;SDS011;54614;47.576;7.524;2023-01-15T05:47:29;1.90;;;0.52;;
67816;SDS011;54614;47.576;7.524;2023-01-15T05:49:54;1.95;;;0.50;;
67816;SDS011;54614;47.576;7.524;2023-01-15T05:52:21;1.00;;;0.60;;
67816;SDS011;54614;47.576;7.524;2023-01-15T05:54:47;1.25;;;0.70;;
67816;SDS011;54614;47.576;7.524;2023-01-15T05:57:14;2.47;;;0.70;;
67816;SDS011;54614;47.576;7.524;2023-01-15T05:59:40;1.25;;;0.52;;
67816;SDS011;54614;47.576;7.524;2023-01-15T06:02:06;0.30;;;0.30;;
67816;SDS011;54614;47.576;7.524;2023-01-15T06:04:32;0.40;;;0.40;;
67816;SDS011;54614;47.576;7.524;2023-01-15T06:06:57;0.50;;;0.50;;
67816;SDS011;54614;47.576;7.524;2023-01-15T06:09:23;0.65;;;0.52;;
67816;SDS011;54614;47.576;7.524;2023-01-15T06:11:52;1.27;;;0.55;;
67816;SDS011;54614;47.576;7.524;2023-01-15T06:14:19;0.40;;;0.40;;
67816;SDS011;54614;47.576;7.524;2023-01-15T06:16:45;0.40;;;0.40;;
67816;SDS011;54614;47.576;7.524;2023-01-15T06:19:12;0.50;;;0.50;;
67816;SDS011;54614;47.576;7.524;2023-01-15T06:21:38;0.85;;;0.50;;
67816;SDS011;54614;47.576;7.524;2023-01-15T06:24:05;0.52;;;0.52;;
67816;SDS011;54614;47.576;7.524;2023-01-15T06:26:32;0.68;;;0.68;;
67816;SDS011;54614;47.576;7.524;2023-01-15T06:28:57;0.57;;;0.50;;
67816;SDS011;54614;47.576;7.524;2023-01-15T06:31:23;0.40;;;0.40;;
67816;SDS011;54614;47.576;7.524;2023-01-15T06:33:53;0.60;;;0.60;;
67816;SDS011;54614;47.576;7.524;2023-01-15T06:36:22;0.43;;;0.43;;
67816;SDS011;54614;47.576;7.524;2023-01-15T06:38:50;0.47;;;0.47;;
67816;SDS011;54614;47.576;7.524;2023-01-15T06:41:17;0.60;;;0.60;;
67816;SDS011;54614;47.576;7.524;2023-01-15T06:44:05;2.35;;;0.60;;
67816;SDS011;54614;47.576;7.524;2023-01-15T06:46:53;1.88;;;0.57;;
67816;SDS011;54614;47.576;7.524;2023-01-15T06:49:37;1.25;;;0.52;;
67816;SDS011;54614;47.576;7.524;2023-01-15T06:52:04;0.50;;;0.50;;
67816;SDS011;54614;47.576;7.524;2023-01-15T06:54:31;2.78;;;0.60;;
67816;SDS011;54614;47.576;7.524;2023-01-15T06:56:58;0.55;;;0.50;;
67816;SDS011;54614;47.576;7.524;2023-01-15T06:59:24;0.75;;;0.55;;
67816;SDS011;54614;47.576;7.524;2023-01-15T07:01:50;1.45;;;0.50;;
67816;SDS011;54614;47.576;7.524;2023-01-15T07:04:16;0.90;;;0.40;;
67816;SDS011;54614;47.576;7.524;2023-01-15T07:06:42;0.77;;;0.43;;
67816;SDS011;54614;47.576;7.524;2023-01-15T07:09:08;5.10;;;0.50;;
67816;SDS011;54614;47.576;7.524;2023-01-15T07:11:34;3.25;;;0.45;;
67816;SDS011;54614;47.576;7.524;2023-01-15T07:14:00;2.72;;;0.60;;
67816;SDS011;54614;47.576;7.524;2023-01-15T07:16:32;1.63;;;0.60;;
67816;SDS011;54614;47.576;7.524;2023-01-15T07:19:02;4.13;;;0.50;;
67816;SDS011;54614;47.576;7.524;2023-01-15T07:21:28;0.75;;;0.40;;
67816;SDS011;54614;47.576;7.524;2023-01-15T07:23:57;2.90;;;0.70;;
67816;SDS011;54614;47.576;7.524;2023-01-15T07:26:24;3.17;;;0.60;;
67816;SDS011;54614;47.576;7.524;2023-01-15T07:28:51;2.10;;;0.68;;
67816;SDS011;54614;47.576;7.524;2023-01-15T07:31:16;2.83;;;0.60;;
67816;SDS011;54614;47.576;7.524;2023-01-15T07:33:42;4.70;;;0.73;;
67816;SDS011;54614;47.576;7.524;2023-01-15T07:36:08;2.33;;;0.65;;
67816;SDS011;54614;47.576;7.524;2023-01-15T07:38:35;1.23;;;0.60;;
67816;SDS011;54614;47.576;7.524;2023-01-15T07:41:01;5.10;;;0.60;;
67816;SDS011;54614;47.576;7.524;2023-01-15T07:43:45;7.40;;;0.77;;
67816;SDS011;54614;47.576;7.524;2023-01-15T07:46:30;3.43;;;0.50;;
67816;SDS011;54614;47.576;7.524;2023-01-15T07:49:14;4.88;;;0.65;;
67816;SDS011;54614;47.576;7.524;2023-01-15T07:51:59;1.25;;;0.60;;
67816;SDS011;54614;47.576;7.524;2023-01-15T07:54:25;1.27;;;0.70;;
67816;SDS011;54614;47.576;7.524;2023-01-15T07:56:52;1.10;;;0.52;;
67816;SDS011;54614;47.576;7.524;2023-01-15T07:59:18;1.42;;;0.40;;
67816;SDS011;54614;47.576;7.524;2023-01-15T08:01:44;1.55;;;0.60;;
67816;SDS011;54614;47.576;7.524;2023-01-15T08:04:10;9.43;;;0.73;;
67816;SDS011;54614;47.576;7.524;2023-01-15T08:06:36;2.97;;;0.63;;
67816;SDS011;54614;47.576;7.524;2023-01-15T08:09:02;7.05;;;0.90;;
67816;SDS011;54614;47.576;7.524;2023-01-15T08:11:29;3.28;;;0.77;;
67816;SDS011;54614;47.576;7.524;2023-01-15T08:14:13;2.58;;;0.60;;
67816;SDS011;54614;47.576;7.524;2023-01-15T08:16:58;5.90;;;0.77;;
67816;SDS011;54614;47.576;7.524;2023-01-15T08:19:23;3.35;;;0.70;;
67816;SDS011;54614;47.576;7.524;2023-01-15T08:21:50;10.85;;;1.15;;
67816;SDS011;54614;47.576;7.524;2023-01-15T08:24:16;4.07;;;0.73;;
67816;SDS011;54614;47.576;7.524;2023-01-15T08:26:42;3.58;;;0.70;;
67816;SDS011;54614;47.576;7.524;2023-01-15T08:29:08;1.92;;;0.80;;
67816;SDS011;54614;47.576;7.524;2023-01-15T08:31:34;1.77;;;0.47;;
67816;SDS011;54614;47.576;7.524;2023-01-15T08:34:01;2.90;;;0.80;;
67816;SDS011;54614;47.576;7.524;2023-01-15T08:36:27;3.35;;;0.60;;
67816;SDS011;54614;47.576;7.524;2023-01-15T08:38:53;3.90;;;0.60;;
67816;SDS011;54614;47.576;7.524;2023-01-15T08:41:19;4.30;;;0.73;;
67816;SDS011;54614;47.576;7.524;2023-01-15T08:43:44;5.22;;;0.60;;
67816;SDS011;54614;47.576;7.524;2023-01-15T08:46:10;1.92;;;0.68;;
67816;SDS011;54614;47.576;7.524;2023-01-15T08:48:36;4.22;;;0.80;;
67816;SDS011;54614;47.576;7.524;2023-01-15T08:51:06;4.57;;;0.80;;
67816;SDS011;54614;47.576;7.524;2023-01-15T08:53:34;7.38;;;0.70;;
67816;SDS011;54614;47.576;7.524;2023-01-15T08:56:00;2.55;;;0.57;;
67816;SDS011;54614;47.576;7.524;2023-01-15T08:58:30;5.88;;;0.73;;
67816;SDS011;54614;47.576;7.524;2023-01-15T09:01:04;5.32;;;1.02;;
67816;SDS011;54614;47.576;7.524;2023-01-15T09:03:33;6.32;;;0.88;;
67816;SDS011;54614;47.576;7.524;2023-01-15T09:06:00;1.38;;;0.80;;
67816;SDS011;54614;47.576;7.524;2023-01-15T09:08:28;6.90;;;0.70;;
67816;SDS011;54614;47.576;7.524;2023-01-15T09:10:57;4.82;;;0.90;;
67816;SDS011;54614;47.576;7.524;2023-01-15T09:13:26;17.80;;;1.15;;
67816;SDS011;54614;47.576;7.524;2023-01-15T09:15:58;5.95;;;0.88;;
67816;SDS011;54614;47.576;7.524;2023-01-15T09:18:25;8.68;;;0.85;;
67816;SDS011;54614;47.576;7.524;2023-01-15T09:20:51;3.85;;;0.70;;
67816;SDS011;54614;47.576;7.524;2023-01-15T09:23:17;11.85;;;0.80;;
67816;SDS011;54614;47.576;7.524;2023-01-15T09:25:53;8.20;;;0.90;;
67816;SDS011;54614;47.576;7.524;2023-01-15T09:28:25;7.75;;;0.85;;
67816;SDS011;54614;47.576;7.524;2023-01-15T09:30:52;4.15;;;0.88;;
67816;SDS011;54614;47.576;7.524;2023-01-15T09:33:18;5.97;;;0.90;;
67816;SDS011;54614;47.576;7.524;2023-01-15T09:35:44;10.85;;;1.00;;
67816;SDS011;54614;47.576;7.524;2023-01-15T09:38:10;10.25;;;0.90;;
67816;SDS011;54614;47.576;7.524;2023-01-15T09:43:32;8.82;;;0.80;;
67816;SDS011;54614;47.576;7.524;2023-01-15T09:47:02;5.13;;;1.00;;
67816;SDS011;54614;47.576;7.524;2023-01-15T09:50:15;31.30;;;1.38;;
67816;SDS011;54614;47.576;7.524;2023-01-15T09:53:24;5.63;;;1.20;;
67816;SDS011;54614;47.576;7.524;2023-01-15T09:56:27;2.65;;;0.93;;
67816;SDS011;54614;47.576;7.524;2023-01-15T09:59:00;5.95;;;0.80;;
67816;SDS011;54614;47.576;7.524;2023-01-15T10:01:58;7.35;;;1.00;;
67816;SDS011;54614;47.576;7.524;2023-01-15T10:04:42;5.55;;;1.00;;
67816;SDS011;54614;47.576;7.524;2023-01-15T10:07:41;8.05;;;1.55;;
67816;SDS011;54614;47.576;7.524;2023-01-15T10:10:27;10.43;;;1.60;;
67816;SDS011;54614;47.576;7.524;2023-01-15T10:13:02;13.13;;;1.52;;
67816;SDS011;54614;47.576;7.524;2023-01-15T10:15:43;10.95;;;1.60;;
67816;SDS011;54614;47.576;7.524;2023-01-15T10:18:16;7.07;;;1.52;;
67816;SDS011;54614;47.576;7.524;2023-01-15T10:26:44;5.53;;;1.10;;
67816;SDS011;54614;47.576;7.524;2023-01-15T10:29:31;9.45;;;1.75;;
67816;SDS011;54614;47.576;7.524;2023-01-15T10:45:53;4.70;;;1.30;;
67816;SDS011;54614;47.576;7.524;2023-01-15T10:51:02;10.63;;;1.67;;
67816;SDS011;54614;47.576;7.524;2023-01-15T10:53:47;6.05;;;1.67;;
67816;SDS011;54614;47.576;7.524;2023-01-15T10:59:17;6.13;;;1.40;;
67816;SDS011;54614;47.576;7.524;2023-01-15T11:01:54;11.48;;;1.52;;
67816;SDS011;54614;47.576;7.524;2023-01-15T11:04:25;8.68;;;1.40;;
67816;SDS011;54614;47.576;7.524;2023-01-15T11:06:57;8.20;;;1.40;;
67816;SDS011;54614;47.576;7.524;2023-01-15T11:09:25;12.35;;;1.70;;
67816;SDS011;54614;47.576;7.524;2023-01-15T11:12:04;4.43;;;1.45;;
67816;SDS011;54614;47.576;7.524;2023-01-15T11:14:47;7.60;;;1.58;;
67816;SDS011;54614;47.576;7.524;2023-01-15T11:20:30;13.95;;;2.25;;
67816;SDS011;54614;47.576;7.524;2023-01-15T11:25:59;7.57;;;2.00;;
67816;SDS011;54614;47.576;7.524;2023-01-15T11:28:43;10.52;;;1.73;;
67816;SDS011;54614;47.576;7.524;2023-01-15T11:31:11;4.13;;;1.45;;
67816;SDS011;54614;47.576;7.524;2023-01-15T11:33:38;10.35;;;1.60;;
67816;SDS011;54614;47.576;7.524;2023-01-15T11:36:18;9.27;;;1.77;;
67816;SDS011;54614;47.576;7.524;2023-01-15T11:38:49;9.50;;;1.65;;
67816;SDS011;54614;47.576;7.524;2023-01-15T11:43:54;7.00;;;1.80;;
67816;SDS011;54614;47.576;7.524;2023-01-15T11:46:45;6.38;;;1.80;;
67816;SDS011;54614;47.576;7.524;2023-01-15T11:49:29;6.70;;;1.30;;
67816;SDS011;54614;47.576;7.524;2023-01-15T11:52:18;4.93;;;1.88;;
67816;SDS011;54614;47.576;7.524;2023-01-15T11:54:48;3.80;;;1.33;;
67816;SDS011;54614;47.576;7.524;2023-01-15T11:57:25;6.57;;;1.40;;
67816;SDS011;54614;47.576;7.524;2023-01-15T11:59:56;7.20;;;1.35;;
67816;SDS011;54614;47.576;7.524;2023-01-15T12:02:33;6.65;;;1.58;;
67816;SDS011;54614;47.576;7.524;2023-01-15T12:05:15;6.47;;;1.20;;
67816;SDS011;54614;47.576;7.524;2023-01-15T12:07:45;4.90;;;1.50;;
67816;SDS011;54614;47.576;7.524;2023-01-15T12:10:21;4.45;;;1.33;;
67816;SDS011;54614;47.576;7.524;2023-01-15T12:49:23;3.78;;;1.20;;
67816;SDS011;54614;47.576;7.524;2023-01-15T12:54:41;3.83;;;1.17;;
67816;SDS011;54614;47.576;7.524;2023-01-15T12:57:39;3.58;;;1.00;;
67816;SDS011;54614;47.576;7.524;2023-01-15T13:00:16;3.20;;;1.00;;
67816;SDS011;54614;47.576;7.524;2023-01-15T13:05:59;5.65;;;1.20;;
67816;SDS011;54614;47.576;7.524;2023-01-15T13:08:33;4.57;;;1.40;;
67816;SDS011;54614;47.576;7.524;2023-01-15T13:11:35;5.65;;;1.20;;
67816;SDS011;54614;47.576;7.524;2023-01-15T13:14:01;7.40;;;1.50;;
67816;SDS011;54614;47.576;7.524;2023-01-15T13:16:29;2.65;;;1.40;;
67816;SDS011;54614;47.576;7.524;2023-01-15T13:19:20;6.35;;;1.52;;
67816;SDS011;54614;47.576;7.524;2023-01-15T13:21:55;4.95;;;1.10;;
67816;SDS011;54614;47.576;7.524;2023-01-15T13:24:49;2.70;;;1.13;;
67816;SDS011;54614;47.576;7.524;2023-01-15T13:33:18;6.70;;;1.20;;
67816;SDS011;54614;47.576;7.524;2023-01-15T13:38:52;4.82;;;1.48;;
67816;SDS011;54614;47.576;7.524;2023-01-15T13:41:25;6.72;;;1.00;;
67816;SDS011;54614;47.576;7.524;2023-01-15T13:44:28;2.55;;;1.17;;
67816;SDS011;54614;47.576;7.524;2023-01-15T13:49:37;13.88;;;1.58;;
67816;SDS011;54614;47.576;7.524;2023-01-15T13:52:21;4.30;;;0.90;;
67816;SDS011;54614;47.576;7.524;2023-01-15T13:55:01;5.20;;;1.08;;
67816;SDS011;54614;47.576;7.524;2023-01-15T13:57:44;17.13;;;1.15;;
67816;SDS011;54614;47.576;7.524;2023-01-15T14:02:58;12.57;;;1.20;;
67816;SDS011;54614;47.576;7.524;2023-01-15T14:05:30;4.47;;;1.08;;
67816;SDS011;54614;47.576;7.524;2023-01-15T14:08:13;2.40;;;1.00;;
67816;SDS011;54614;47.576;7.524;2023-01-15T14:10:40;6.22;;;1.10;;
67816;SDS011;54614;47.576;7.524;2023-01-15T14:30:08;4.55;;;1.20;;
67816;SDS011;54614;47.576;7.524;2023-01-15T14:35:52;4.70;;;1.10;;
67816;SDS011;54614;47.576;7.524;2023-01-15T14:38:20;5.57;;;1.30;;
67816;SDS011;54614;47.576;7.524;2023-01-15T14:40:55;7.07;;;1.35;;
67816;SDS011;54614;47.576;7.524;2023-01-15T14:43:30;12.73;;;1.40;;
67816;SDS011;54614;47.576;7.524;2023-01-15T14:46:12;8.18;;;1.30;;
67816;SDS011;54614;47.576;7.524;2023-01-15T14:48:51;10.15;;;1.10;;
67816;SDS011;54614;47.576;7.524;2023-01-15T14:51:22;9.85;;;1.42;;
67816;SDS011;54614;47.576;7.524;2023-01-15T14:54:08;23.40;;;1.48;;
67816;SDS011;54614;47.576;7.524;2023-01-15T14:56:49;11.48;;;1.30;;
67816;SDS011;54614;47.576;7.524;2023-01-15T14:59:25;7.50;;;1.50;;
67816;SDS011;54614;47.576;7.524;2023-01-15T15:02:22;6.32;;;1.30;;
67816;SDS011;54614;47.576;7.524;2023-01-15T15:05:02;6.13;;;1.23;;
67816;SDS011;54614;47.576;7.524;2023-01-15T15:07:35;4.93;;;1.33;;
67816;SDS011;54614;47.576;7.524;2023-01-15T15:10:30;8.82;;;1.45;;
67816;SDS011;54614;47.576;7.524;2023-01-15T15:16:00;10.73;;;1.60;;
67816;SDS011;54614;47.576;7.524;2023-01-15T15:18:52;3.75;;;1.52;;
67816;SDS011;54614;47.576;7.524;2023-01-15T15:21:38;6.78;;;1.40;;
67816;SDS011;54614;47.576;7.524;2023-01-15T15:27:09;16.00;;;1.80;;
67816;SDS011;54614;47.576;7.524;2023-01-15T15:29:44;13.32;;;1.55;;
67816;SDS011;54614;47.576;7.524;2023-01-15T15:32:12;11.35;;;1.67;;
67816;SDS011;54614;47.576;7.524;2023-01-15T15:34:47;17.58;;;1.98;;
67816;SDS011;54614;47.576;7.524;2023-01-15T15:37:21;29.02;;;14.25;;
67816;SDS011;54614;47.576;7.524;2023-01-15T15:39:51;51.20;;;21.38;;
67816;SDS011;54614;47.576;7.524;2023-01-15T15:42:47;49.20;;;18.95;;
67816;SDS011;54614;47.576;7.524;2023-01-15T15:45:52;27.08;;;10.85;;
67816;SDS011;54614;47.576;7.524;2023-01-15T15:48:39;30.48;;;10.40;;
67816;SDS011;54614;47.576;7.524;2023-01-15T15:51:27;25.67;;;10.80;;
67816;SDS011;54614;47.576;7.524;2023-01-15T15:54:16;24.90;;;8.93;;
67816;SDS011;54614;47.576;7.524;2023-01-15T15:56:51;43.30;;;16.60;;
67816;SDS011;54614;47.576;7.524;2023-01-15T16:02:18;22.27;;;11.85;;
67816;SDS011;54614;47.576;7.524;2023-01-15T16:04:52;36.67;;;17.60;;
67816;SDS011;54614;47.576;7.524;2023-01-15T16:07:21;30.85;;;15.68;;
67816;SDS011;54614;47.576;7.524;2023-01-15T16:12:49;27.98;;;11.65;;
67816;SDS011;54614;47.576;7.524;2023-01-15T16:15:19;31.13;;;12.88;;
67816;SDS011;54614;47.576;7.524;2023-01-15T16:17:53;65.82;;;27.25;;
67816;SDS011;54614;47.576;7.524;2023-01-15T16:20:21;46.83;;;19.08;;
67816;SDS011;54614;47.576;7.524;2023-01-15T16:22:51;38.08;;;16.75;;
67816;SDS011;54614;47.576;7.524;2023-01-15T16:25:31;31.13;;;13.70;;
67816;SDS011;54614;47.576;7.524;2023-01-15T16:27:58;32.10;;;12.98;;
67816;SDS011;54614;47.576;7.524;2023-01-15T16:30:26;24.45;;;11.98;;
67816;SDS011;54614;47.576;7.524;2023-01-15T16:32:57;50.80;;;20.48;;
67816;SDS011;54614;47.576;7.524;2023-01-15T16:35:29;30.17;;;13.80;;
67816;SDS011;54614;47.576;7.524;2023-01-15T16:38:00;28.13;;;12.38;;
67816;SDS011;54614;47.576;7.524;2023-01-15T16:43:10;37.08;;;17.38;;
67816;SDS011;54614;47.576;7.524;2023-01-15T16:46:03;41.50;;;20.80;;
67816;SDS011;54614;47.576;7.524;2023-01-15T16:48:44;23.70;;;9.98;;
67816;SDS011;54614;47.576;7.524;2023-01-15T16:54:03;11.05;;;5.68;;
67816;SDS011;54614;47.576;7.524;2023-01-15T16:58:59;10.93;;;4.55;;
67816;SDS011;54614;47.576;7.524;2023-01-15T17:01:35;11.27;;;4.78;;
67816;SDS011;54614;47.576;7.524;2023-01-15T17:09:44;8.18;;;4.03;;
67816;SDS011;54614;47.576;7.524;2023-01-15T17:17:44;14.77;;;3.47;;
67816;SDS011;54614;47.576;7.524;2023-01-15T17:20:13;19.15;;;3.42;;
67816;SDS011;54614;47.576;7.524;2023-01-15T17:22:43;6.47;;;2.95;;
67816;SDS011;54614;47.576;7.524;2023-01-15T17:27:50;12.20;;;2.70;;
67816;SDS011;54614;47.576;7.524;2023-01-15T17:30:18;10.70;;;2.85;;
67816;SDS011;54614;47.576;7.524;2023-01-15T17:32:44;8.95;;;2.38;;
67816;SDS011;54614;47.576;7.524;2023-01-15T17:35:17;7.10;;;2.92;;
67816;SDS011;54614;47.576;7.524;2023-01-15T17:37:49;7.03;;;2.25;;
67816;SDS011;54614;47.576;7.524;2023-01-15T17:40:15;11.50;;;2.47;;
67816;SDS011;54614;47.576;7.524;2023-01-15T17:42:41;8.68;;;2.55;;
67816;SDS011;54614;47.576;7.524;2023-01-15T17:45:11;9.05;;;2.40;;
67816;SDS011;54614;47.576;7.524;2023-01-15T17:47:51;4.55;;;2.40;;
67816;SDS011;54614;47.576;7.524;2023-01-15T17:50:17;8.07;;;2.00;;
67816;SDS011;54614;47.576;7.524;2023-01-15T17:52:43;8.60;;;2.17;;
67816;SDS011;54614;47.576;7.524;2023-01-15T17:55:12;8.20;;;2.50;;
67816;SDS011;54614;47.576;7.524;2023-01-15T17:58:00;4.60;;;2.10;;
67816;SDS011;54614;47.576;7.524;2023-01-15T18:00:45;6.75;;;2.10;;
67816;SDS011;54614;47.576;7.524;2023-01-15T18:03:30;11.50;;;2.13;;
67816;SDS011;54614;47.576;7.524;2023-01-15T18:06:17;5.00;;;2.05;;
67816;SDS011;54614;47.576;7.524;2023-01-15T18:08:47;10.75;;;2.10;;
67816;SDS011;54614;47.576;7.524;2023-01-15T18:11:19;7.35;;;1.90;;